Time;durP1;ratioP1;P1;durP2;ratioP2;P2;SDS_P1;SDS_P2;PMS_P1;PMS_P2;Temp;Humidity;BMP_temperature;BMP_pressure;BME280_temperature;BME280_humidity;BME280_pressure;Samples;Min_cycle;Max_cycle;Signal;HPM_P1;HPM_P2
2023/08/25 00:00:14;;;;;;;6.40;3.00;;;;;;;15.97;80.45;99416.86;109874;1278;99508;-51
2023/08/25 00:03:04;;;;;;;4.30;2.50;;;;;;;16.01;80.56;99409.67;109973;1277;22866;-51
2023/08/25 00:05:37;;;;;;;4.40;2.60;;;;;;;16.03;80.56;99402.68;109914;1277;99025;-53
2023/08/25 00:08:06;;;;;;;4.00;2.20;;;;;;;16.03;80.24;99394.95;109950;1280;23198;-51
2023/08/25 00:10:35;;;;;;;2.60;2.00;;;;;;;16.04;80.28;99396.30;109946;1276;99776;-52
2023/08/25 00:13:03;;;;;;;3.00;2.20;;;;;;;16.00;80.46;99392.52;109958;1276;22297;-51
2023/08/25 00:15:32;;;;;;;2.70;1.80;;;;;;;16.01;80.50;99387.19;109956;1276;22198;-51
2023/08/25 00:18:01;;;;;;;7.00;2.50;;;;;;;16.01;80.49;99384.27;109935;1277;99599;-52
2023/08/25 00:20:31;;;;;;;6.50;2.40;;;;;;;16.01;80.55;99376.13;109985;1276;22391;-51
2023/08/25 00:22:59;;;;;;;3.10;1.60;;;;;;;16.02;80.71;99379.04;109898;1277;99659;-52
2023/08/25 00:25:28;;;;;;;5.90;2.50;;;;;;;16.04;80.50;99378.20;109997;1276;23070;-52
2023/08/25 00:27:56;;;;;;;5.60;2.40;;;;;;;16.05;81.02;99379.38;109946;1276;22326;-52
2023/08/25 00:30:26;;;;;;;2.50;1.70;;;;;;;16.07;81.16;99387.13;109929;1276;22443;-52
2023/08/25 00:32:54;;;;;;;4.80;2.40;;;;;;;16.09;81.26;99384.02;109972;1276;22194;-51
2023/08/25 00:35:23;;;;;;;2.90;2.40;;;;;;;16.11;81.31;99380.66;109911;1276;99636;-52
2023/08/25 00:37:52;;;;;;;2.80;2.30;;;;;;;16.14;81.55;99377.81;110000;1277;23149;-52
2023/08/25 00:40:21;;;;;;;3.90;2.20;;;;;;;16.16;81.62;99379.91;109899;1277;100291;-52
2023/08/25 00:42:50;;;;;;;3.90;2.40;;;;;;;16.19;81.58;99371.63;110014;1276;22139;-51
2023/08/25 00:45:18;;;;;;;3.10;2.00;;;;;;;16.20;81.64;99372.55;109955;1278;23021;-52
2023/08/25 00:47:47;;;;;;;2.30;1.30;;;;;;;16.20;81.68;99367.52;109888;1278;99583;-52
2023/08/25 00:50:16;;;;;;;3.40;1.80;;;;;;;16.20;81.83;99366.30;109971;1277;22170;-51
2023/08/25 00:52:45;;;;;;;5.40;2.40;;;;;;;16.21;82.01;99364.80;109879;1276;99627;-50
2023/08/25 00:55:13;;;;;;;1.90;1.40;;;;;;;16.25;82.08;99364.98;109977;1278;22249;-51
2023/08/25 00:57:42;;;;;;;2.00;1.70;;;;;;;16.30;82.21;99362.36;109907;1278;22273;-51
2023/08/25 01:00:11;;;;;;;3.10;1.60;;;;;;;16.35;82.30;99363.38;109825;1278;100044;-52
2023/08/25 01:02:40;;;;;;;2.20;1.10;;;;;;;16.40;82.25;99361.82;109954;1279;22337;-51
2023/08/25 01:05:10;;;;;;;2.60;1.60;;;;;;;16.44;82.39;99361.84;109885;1277;99905;-51
2023/08/25 01:07:39;;;;;;;3.00;1.40;;;;;;;16.49;82.41;99360.23;109951;1277;22253;-51
2023/08/25 01:10:09;;;;;;;3.30;1.90;;;;;;;16.52;82.42;99364.85;109798;1277;104411;-50
2023/08/25 01:13:07;;;;;;;1.10;1.00;;;;;;;16.55;82.47;99362.54;109928;1277;22289;-51
2023/08/25 01:15:38;;;;;;;1.60;1.00;;;;;;;16.60;82.66;99360.58;109987;1276;23629;-52
2023/08/25 01:18:12;;;;;;;2.10;1.00;;;;;;;16.63;82.71;99363.17;109819;1276;99548;-52
2023/08/25 01:20:42;;;;;;;2.80;1.10;;;;;;;16.67;82.74;99360.89;109954;1279;22280;-52
2023/08/25 01:23:19;;;;;;;2.10;0.90;;;;;;;16.71;82.78;99366.74;109853;1276;100340;-53
2023/08/25 01:25:50;;;;;;;2.50;1.00;;;;;;;16.74;82.74;99367.34;109981;1276;22310;-50
2023/08/25 01:28:23;;;;;;;3.70;1.10;;;;;;;16.75;82.82;99367.98;109889;1276;100170;-52
2023/08/25 01:30:55;;;;;;;1.50;1.00;;;;;;;16.76;82.81;99368.13;109890;1277;22355;-52
2023/08/25 01:33:23;;;;;;;2.30;1.20;;;;;;;16.78;82.80;99367.10;109911;1283;22289;-52
2023/08/25 01:36:02;;;;;;;1.20;0.80;;;;;;;16.81;82.85;99363.56;109862;1276;99504;-51
2023/08/25 01:38:43;;;;;;;2.00;1.00;;;;;;;16.83;82.53;99364.83;109936;1279;22158;-52
2023/08/25 01:41:24;;;;;;;3.20;1.10;;;;;;;16.83;82.62;99362.00;109795;1278;99767;-53
2023/08/25 01:43:54;;;;;;;3.00;1.40;;;;;;;16.84;82.71;99358.95;109963;1276;22276;-51
2023/08/25 01:46:24;;;;;;;2.90;1.10;;;;;;;16.84;82.71;99350.13;109789;1279;98707;-51
2023/08/25 01:48:56;;;;;;;1.70;1.30;;;;;;;16.83;82.75;99342.44;110001;1279;22303;-52
2023/08/25 01:51:25;;;;;;;1.90;1.20;;;;;;;16.83;82.75;99341.55;109951;1277;22161;-51
2023/08/25 01:53:54;;;;;;;1.40;1.00;;;;;;;16.84;82.88;99338.68;109880;1276;99992;-51
2023/08/25 01:56:24;;;;;;;1.80;0.90;;;;;;;16.85;82.98;99334.96;109965;1271;22164;-51
2023/08/25 01:58:53;;;;;;;1.50;1.00;;;;;;;16.86;83.11;99331.34;109935;1281;99568;-51
2023/08/25 02:01:21;;;;;;;1.90;1.00;;;;;;;16.88;83.29;99333.45;109969;1277;22404;-51
2023/08/25 02:03:50;;;;;;;3.10;0.80;;;;;;;16.92;83.29;99330.35;109996;1276;23551;-51
2023/08/25 02:06:18;;;;;;;1.60;0.80;;;;;;;16.94;83.33;99331.18;109893;1280;99700;-52
2023/08/25 02:08:47;;;;;;;1.10;0.60;;;;;;;16.98;83.07;99329.67;109997;1276;22154;-50
2023/08/25 02:11:15;;;;;;;0.80;0.50;;;;;;;16.99;83.19;99329.55;109945;1276;99432;-51
2023/08/25 02:13:44;;;;;;;1.10;0.60;;;;;;;17.01;83.13;99326.07;110033;1280;22396;-51
2023/08/25 02:16:13;;;;;;;1.30;0.60;;;;;;;17.02;83.13;99325.63;109937;1277;100578;-52
2023/08/25 02:18:41;;;;;;;3.70;1.10;;;;;;;17.02;83.02;99323.38;110039;1268;22302;-52
2023/08/25 02:21:10;;;;;;;1.40;0.90;;;;;;;17.02;82.97;99318.45;110012;1276;22192;-52
2023/08/25 02:23:40;;;;;;;1.30;0.80;;;;;;;17.02;83.01;99318.60;109920;1276;101107;-51
2023/08/25 02:26:08;;;;;;;1.90;1.00;;;;;;;17.02;83.10;99316.65;110031;1276;22345;-52
2023/08/25 02:28:37;;;;;;;0.50;0.50;;;;;;;17.01;83.08;99313.06;109911;1276;99623;-51
2023/08/25 02:31:06;;;;;;;1.60;0.70;;;;;;;17.00;83.12;99308.79;109986;1276;22282;-52
2023/08/25 02:33:35;;;;;;;2.60;0.70;;;;;;;16.98;83.17;99300.25;110018;1276;23178;-51
2023/08/25 02:36:04;;;;;;;4.30;1.20;;;;;;;16.98;83.14;99298.89;109900;1276;101238;-52
2023/08/25 02:38:32;;;;;;;0.80;0.70;;;;;;;16.98;83.13;99300.49;110030;1277;22277;-52
2023/08/25 02:41:01;;;;;;;1.50;0.80;;;;;;;16.97;83.07;99299.81;109889;1276;100970;-52
2023/08/25 02:43:30;;;;;;;0.60;0.60;;;;;;;16.96;83.10;99297.11;110003;1276;22134;-51
2023/08/25 02:45:59;;;;;;;1.00;0.90;;;;;;;16.96;82.99;99291.27;110013;1279;23202;-52
2023/08/25 02:48:28;;;;;;;1.30;0.70;;;;;;;16.97;83.04;99291.02;109971;1280;22107;-49
2023/08/25 02:50:57;;;;;;;0.80;0.40;;;;;;;16.97;82.94;99289.29;110025;1277;22366;-51
2023/08/25 02:53:26;;;;;;;1.80;0.90;;;;;;;16.97;82.95;99284.54;109963;1277;99234;-52
2023/08/25 02:55:54;;;;;;;1.80;0.60;;;;;;;16.97;82.91;99279.60;110016;1276;22204;-52
2023/08/25 02:58:23;;;;;;;2.40;1.20;;;;;;;16.97;82.96;99279.95;109930;1277;99565;-51
2023/08/25 03:00:51;;;;;;;1.30;1.10;;;;;;;16.98;82.91;99280.76;110016;1277;22153;-51
2023/08/25 03:03:20;;;;;;;5.20;1.10;;;;;;;16.99;83.18;99280.50;110049;1277;22292;-52
2023/08/25 03:05:49;;;;;;;0.90;0.60;;;;;;;17.02;83.36;99280.46;109926;1277;99995;-51
2023/08/25 03:08:20;;;;;;;0.90;0.60;;;;;;;17.05;83.38;99279.17;110007;1270;22965;-50
2023/08/25 03:10:49;;;;;;;1.50;0.70;;;;;;;17.07;83.41;99279.65;109946;1276;100942;-51
2023/08/25 03:13:18;;;;;;;5.10;1.10;;;;;;;17.09;83.31;99275.96;110039;1276;23013;-52
2023/08/25 03:15:54;;;;;;;1.00;0.70;;;;;;;17.12;83.27;99271.89;109954;1277;22293;-51
2023/08/25 03:18:23;;;;;;;2.00;1.30;;;;;;;17.12;83.19;99268.51;109888;1276;99797;-51
2023/08/25 03:20:53;;;;;;;1.40;0.80;;;;;;;17.13;83.19;99265.29;110003;1277;22313;-51
2023/08/25 03:23:22;;;;;;;3.20;1.00;;;;;;;17.13;83.19;99261.23;109873;1277;99572;-51
2023/08/25 03:25:50;;;;;;;4.80;0.80;;;;;;;17.14;83.35;99257.14;110005;1276;22111;-51
2023/08/25 03:28:19;;;;;;;1.80;1.00;;;;;;;17.15;83.31;99258.11;109816;1277;99672;-51
2023/08/25 03:30:52;;;;;;;4.50;1.10;;;;;;;17.14;83.25;99257.34;110011;1277;22308;-50
2023/08/25 03:33:20;;;;;;;5.80;1.10;;;;;;;17.11;83.40;99256.14;109998;1276;22401;-51
2023/08/25 03:35:49;;;;;;;0.90;0.50;;;;;;;17.09;83.37;99250.13;109818;1276;99466;-51
2023/08/25 03:38:17;;;;;;;2.80;1.10;;;;;;;17.11;83.52;99250.55;109982;1276;22351;-50
2023/08/25 03:40:46;;;;;;;0.80;0.60;;;;;;;17.14;83.46;99250.98;109828;1279;100162;-52
2023/08/25 03:43:15;;;;;;;2.30;0.80;;;;;;;17.13;83.31;99247.73;109946;1277;22477;-51
2023/08/25 03:45:44;;;;;;;1.20;0.80;;;;;;;17.11;83.41;99245.04;109910;1281;22291;-51
2023/08/25 03:48:13;;;;;;;2.00;0.70;;;;;;;17.09;83.50;99244.01;109885;1280;99447;-51
2023/08/25 03:50:46;;;;;;;1.00;0.70;;;;;;;17.05;83.57;99242.77;109952;1279;22298;-50
2023/08/25 03:53:16;;;;;;;2.20;1.00;;;;;;;17.02;83.74;99232.44;109781;1278;99448;-52
2023/08/25 03:55:45;;;;;;;2.10;0.90;;;;;;;17.00;83.57;99233.50;109876;1276;22247;-51
2023/08/25 03:58:14;;;;;;;3.80;0.80;;;;;;;16.98;83.46;99232.04;109669;1278;99501;-51
2023/08/25 04:00:43;;;;;;;1.40;1.00;;;;;;;16.95;83.55;99233.95;109960;1276;22108;-51
2023/08/25 04:03:12;;;;;;;2.10;1.20;;;;;;;16.91;83.54;99226.11;109979;1276;22238;-52
2023/08/25 04:05:40;;;;;;;1.80;1.10;;;;;;;16.93;83.74;99226.16;109909;1276;99429;-51
2023/08/25 04:08:09;;;;;;;2.60;1.00;;;;;;;16.96;83.68;99225.02;110018;1276;22143;-52
2023/08/25 04:10:37;;;;;;;1.60;0.90;;;;;;;16.99;83.66;99223.40;109906;1276;99627;-50
2023/08/25 04:13:06;;;;;;;1.60;0.90;;;;;;;17.00;83.59;99223.15;109933;1277;22351;-52
2023/08/25 04:15:38;;;;;;;3.50;0.80;;;;;;;17.04;83.80;99219.27;109938;1276;22865;-51
2023/08/25 04:18:06;;;;;;;4.40;1.60;;;;;;;17.15;83.94;99218.15;109873;1276;99739;-51
2023/08/25 04:20:35;;;;;;;3.70;1.00;;;;;;;17.27;83.93;99219.33;109889;1276;22176;-52
2023/08/25 04:23:04;;;;;;;3.90;1.30;;;;;;;17.38;84.05;99218.80;109858;1276;101650;-51
2023/08/25 04:25:33;;;;;;;3.10;1.20;;;;;;;17.45;83.74;99214.69;109827;1276;23626;-51
2023/08/25 04:28:02;;;;;;;3.60;0.80;;;;;;;17.49;83.54;99211.55;109744;1276;99634;-51
2023/08/25 04:30:33;;;;;;;1.20;0.90;;;;;;;17.52;83.61;99208.40;109879;1280;22357;-51
2023/08/25 04:33:02;;;;;;;2.20;1.00;;;;;;;17.55;83.52;99204.83;109931;1276;22373;-52
2023/08/25 04:35:31;;;;;;;1.90;1.10;;;;;;;17.57;83.52;99206.73;109771;1276;99988;-52
2023/08/25 04:38:00;;;;;;;2.70;1.10;;;;;;;17.62;83.43;99204.08;110010;1276;22193;-52
2023/08/25 04:40:29;;;;;;;4.30;1.20;;;;;;;17.68;83.43;99196.16;109880;1264;99719;-52
2023/08/25 04:42:58;;;;;;;2.70;2.00;;;;;;;17.75;83.30;99197.17;109956;1276;22214;-51
2023/08/25 04:45:27;;;;;;;3.10;1.70;;;;;;;17.82;83.28;99191.70;109818;1276;22276;-52
2023/08/25 04:47:56;;;;;;;1.30;0.80;;;;;;;17.87;83.08;99191.62;109755;1276;99516;-52
2023/08/25 04:50:25;;;;;;;1.90;1.00;;;;;;;17.82;82.75;99189.94;109907;1276;23008;-52
2023/08/25 04:52:58;;;;;;;3.60;1.30;;;;;;;17.75;82.83;99186.27;109768;1277;99691;-52
2023/08/25 04:55:26;;;;;;;3.30;1.30;;;;;;;17.76;83.13;99186.88;109989;1276;23104;-51
2023/08/25 04:57:55;;;;;;;2.40;0.80;;;;;;;17.84;83.29;99186.90;109949;1278;22285;-52
2023/08/25 05:00:24;;;;;;;1.60;1.00;;;;;;;17.95;83.45;99183.52;109840;1280;99840;-52
2023/08/25 05:02:53;;;;;;;1.30;0.80;;;;;;;18.04;83.28;99185.70;109911;1280;22159;-52
2023/08/25 05:05:23;;;;;;;1.50;0.80;;;;;;;18.15;83.24;99183.36;109859;1277;99491;-52
2023/08/25 05:07:52;;;;;;;1.00;0.70;;;;;;;18.32;83.29;99183.41;110000;1276;22281;-52
2023/08/25 05:10:21;;;;;;;2.70;1.30;;;;;;;18.45;82.96;99185.97;109802;1280;99610;-52
2023/08/25 05:12:49;;;;;;;2.20;1.10;;;;;;;18.56;83.17;99181.83;109849;1276;22308;-52
2023/08/25 05:15:18;;;;;;;1.60;1.10;;;;;;;18.68;82.96;99178.52;110002;1276;22831;-52
2023/08/25 05:17:47;;;;;;;2.80;0.80;;;;;;;18.78;82.98;99175.54;109882;1276;99454;-52
2023/08/25 05:20:19;;;;;;;1.70;0.70;;;;;;;18.81;82.77;99174.73;110012;1276;22343;-52
2023/08/25 05:22:47;;;;;;;2.00;1.40;;;;;;;18.80;82.63;99171.10;109718;1276;99838;-51
2023/08/25 05:25:20;;;;;;;1.30;1.10;;;;;;;18.80;82.42;99170.09;109922;1276;22166;-53
2023/08/25 05:27:49;;;;;;;3.80;1.10;;;;;;;18.77;82.14;99163.79;109992;1273;22279;-52
2023/08/25 05:30:19;;;;;;;1.60;0.90;;;;;;;18.74;82.13;99160.73;109889;1277;99238;-52
2023/08/25 05:32:48;;;;;;;2.20;1.10;;;;;;;18.72;82.14;99158.05;109923;1277;22397;-51
2023/08/25 05:35:19;;;;;;;5.50;1.10;;;;;;;18.74;82.06;99158.04;109865;1276;99607;-52
2023/08/25 05:37:49;;;;;;;1.50;1.20;;;;;;;18.80;82.05;99153.08;109808;1280;22043;-52
2023/08/25 05:40:19;;;;;;;3.20;1.30;;;;;;;18.90;81.75;99144.64;109779;1276;99618;-52
2023/08/25 05:42:48;;;;;;;4.40;1.20;;;;;;;19.01;81.56;99146.83;109915;1279;22282;-52
2023/08/25 05:45:16;;;;;;;2.00;1.00;;;;;;;19.14;81.44;99148.08;109923;1276;23090;-52
2023/08/25 05:47:45;;;;;;;3.90;1.10;;;;;;;19.26;81.21;99144.67;109957;1276;99475;-53
2023/08/25 05:50:14;;;;;;;1.20;0.90;;;;;;;19.37;81.04;99140.06;109972;1276;22247;-53
2023/08/25 05:52:47;;;;;;;2.60;0.90;;;;;;;19.51;80.92;99142.17;109934;1276;99664;-52
2023/08/25 05:55:16;;;;;;;3.20;0.90;;;;;;;19.61;80.64;99138.92;109978;1277;22139;-52
2023/08/25 05:57:44;;;;;;;2.10;0.90;;;;;;;19.71;80.52;99134.29;110012;1276;22293;-51
2023/08/25 06:00:14;;;;;;;3.30;1.10;;;;;;;19.86;80.37;99134.85;109894;1276;100158;-51
2023/08/25 06:02:47;;;;;;;4.20;1.30;;;;;;;20.02;80.17;99133.13;109980;1277;23027;-53
2023/08/25 06:05:16;;;;;;;1.30;0.90;;;;;;;20.19;79.96;99129.52;109581;1276;456590;-54
2023/08/25 06:07:45;;;;;;;1.50;0.70;;;;;;;20.35;79.74;99125.71;110014;1277;22312;-53
2023/08/25 06:10:17;;;;;;;1.10;0.70;;;;;;;20.46;79.42;99126.92;109904;1276;99984;-53
2023/08/25 06:12:45;;;;;;;3.90;0.90;;;;;;;20.53;79.14;99121.17;109905;1278;22222;-52
2023/08/25 06:15:16;;;;;;;1.60;0.50;;;;;;;20.63;79.10;99118.96;110015;1276;22275;-55
2023/08/25 06:17:44;;;;;;;2.90;1.60;;;;;;;20.81;79.22;99119.45;109921;1275;99448;-53
2023/08/25 06:20:13;;;;;;;1.20;0.80;;;;;;;21.08;79.07;99120.23;109919;1276;22283;-53
2023/08/25 06:22:42;;;;;;;2.10;0.90;;;;;;;21.44;78.80;99118.23;109636;1275;99847;-53
2023/08/25 06:25:14;;;;;;;1.30;0.80;;;;;;;21.90;78.72;99121.88;109965;1274;22154;-54
2023/08/25 06:27:42;;;;;;;1.70;0.90;;;;;;;22.37;78.41;99120.32;110007;1276;22339;-54
2023/08/25 06:30:11;;;;;;;6.00;1.20;;;;;;;22.79;77.81;99115.98;109897;1276;99967;-51
2023/08/25 06:32:40;;;;;;;2.50;0.80;;;;;;;23.02;77.38;99110.55;109981;1276;23566;-53
2023/08/25 06:35:12;;;;;;;3.00;1.40;;;;;;;23.21;77.03;99105.76;109854;1275;99564;-53
2023/08/25 06:37:41;;;;;;;2.60;0.80;;;;;;;23.36;76.51;99101.63;109953;1279;24364;-53
2023/08/25 06:40:10;;;;;;;1.10;0.60;;;;;;;23.50;76.14;99101.90;109919;1276;103023;-53
2023/08/25 06:42:38;;;;;;;13.50;1.90;;;;;;;23.55;75.63;99100.41;109989;1276;22095;-54
2023/08/25 06:45:07;;;;;;;2.20;0.80;;;;;;;23.67;75.29;99101.59;109897;1276;22307;-52
2023/08/25 06:47:36;;;;;;;2.90;0.90;;;;;;;23.89;75.10;99095.96;109920;1261;99988;-53
2023/08/25 06:50:06;;;;;;;1.60;0.80;;;;;;;24.11;74.47;99097.70;109914;1276;22888;-54
2023/08/25 06:52:36;;;;;;;2.00;0.90;;;;;;;24.28;74.37;99095.54;109899;1276;100400;-56
2023/08/25 06:55:04;;;;;;;1.90;0.80;;;;;;;24.49;74.03;99098.56;109988;1277;22408;-53
2023/08/25 06:57:34;;;;;;;1.60;0.60;;;;;;;24.68;73.71;99093.27;109939;1276;22309;-53
2023/08/25 07:00:08;;;;;;;1.10;0.50;;;;;;;24.90;73.38;99086.64;109872;1276;100016;-54
2023/08/25 07:02:39;;;;;;;1.40;0.70;;;;;;;25.01;72.69;99080.91;110002;1276;22961;-56
2023/08/25 07:05:27;;;;;;;5.00;1.10;;;;;;;25.03;72.28;99080.98;109842;1277;99388;-54
2023/08/25 07:08:16;;;;;;;1.80;0.70;;;;;;;25.24;71.64;99077.14;109886;1277;22146;-54
2023/08/25 07:10:46;;;;;;;1.20;0.90;;;;;;;25.42;70.90;99076.30;109797;1276;100114;-52
2023/08/25 07:13:15;;;;;;;2.10;0.50;;;;;;;25.63;70.74;99075.48;109964;1276;22390;-56
2023/08/25 07:15:44;;;;;;;1.50;1.00;;;;;;;25.78;70.08;99076.29;109898;1278;22355;-54
2023/08/25 07:18:13;;;;;;;1.20;0.60;;;;;;;25.80;69.19;99083.40;109940;1276;99619;-55
2023/08/25 07:20:44;;;;;;;0.70;0.50;;;;;;;25.66;68.36;99081.39;109983;1276;23051;-55
2023/08/25 07:23:13;;;;;;;2.20;0.40;;;;;;;25.51;68.02;99076.61;109929;1276;99489;-53
2023/08/25 07:25:43;;;;;;;1.40;0.60;;;;;;;25.37;67.55;99074.86;109997;1277;22139;-52
2023/08/25 07:28:12;;;;;;;1.40;1.00;;;;;;;25.43;67.37;99070.29;109826;1276;102817;-52
2023/08/25 07:30:41;;;;;;;1.30;0.70;;;;;;;25.64;67.41;99065.98;109934;1276;22954;-55
2023/08/25 07:33:09;;;;;;;2.90;1.00;;;;;;;25.72;66.51;99067.90;109982;1276;22330;-53
2023/08/25 07:35:41;;;;;;;1.30;0.70;;;;;;;25.70;66.17;99062.78;109955;1276;99459;-53
2023/08/25 07:38:11;;;;;;;4.50;1.90;;;;;;;25.75;65.57;99058.90;110003;1276;22395;-54
2023/08/25 07:40:39;;;;;;;3.60;0.70;;;;;;;26.03;65.38;99056.92;109914;1276;102610;-53
2023/08/25 07:43:08;;;;;;;2.10;0.50;;;;;;;26.39;65.00;99054.66;110002;1276;22174;-54
2023/08/25 07:45:37;;;;;;;0.90;0.70;;;;;;;26.43;64.19;99054.70;110016;1276;22131;-54
2023/08/25 07:48:08;;;;;;;1.60;0.80;;;;;;;26.18;63.38;99055.31;109808;1276;99915;-55
2023/08/25 07:50:37;;;;;;;0.70;0.60;;;;;;;25.89;62.78;99055.98;110002;1276;22305;-55
2023/08/25 07:53:06;;;;;;;2.70;0.80;;;;;;;25.68;62.20;99053.71;109881;1279;99666;-55
2023/08/25 07:55:39;;;;;;;1.20;0.60;;;;;;;25.40;61.87;99054.92;110008;1276;23058;-55
2023/08/25 07:58:09;;;;;;;2.60;0.90;;;;;;;25.15;61.33;99049.65;109893;1276;100225;-56
2023/08/25 08:00:38;;;;;;;3.50;1.00;;;;;;;24.94;60.95;99052.38;109957;1280;23048;-55
2023/08/25 08:03:11;;;;;;;3.70;1.40;;;;;;;24.81;60.63;99046.20;110029;1276;22238;-55
2023/08/25 08:05:39;;;;;;;3.70;1.20;;;;;;;24.78;60.42;99047.84;109912;1270;99948;-55
2023/08/25 08:08:09;;;;;;;2.40;1.00;;;;;;;24.86;60.23;99049.61;110030;1276;22219;-56
2023/08/25 08:10:39;;;;;;;2.00;0.70;;;;;;;24.96;59.80;99053.88;109965;1276;99672;-55
2023/08/25 08:13:08;;;;;;;4.90;1.60;;;;;;;25.12;59.75;99050.90;110027;1276;23058;-55
2023/08/25 08:15:38;;;;;;;1.40;0.80;;;;;;;25.32;59.65;99049.36;110059;1276;22282;-55
2023/08/25 08:18:07;;;;;;;2.20;0.90;;;;;;;25.42;59.35;99051.83;109939;1277;99451;-55
2023/08/25 08:20:35;;;;;;;2.10;1.20;;;;;;;25.48;58.90;99054.30;109952;1277;22455;-55
2023/08/25 08:23:04;;;;;;;1.20;0.60;;;;;;;25.60;58.85;99055.13;109897;1276;99554;-56
2023/08/25 08:25:36;;;;;;;6.10;1.80;;;;;;;25.71;58.56;99059.59;110027;1277;24216;-55
2023/08/25 08:28:08;;;;;;;5.60;1.00;;;;;;;25.68;58.08;99058.89;109933;1276;98630;-55
2023/08/25 08:30:37;;;;;;;1.10;0.50;;;;;;;25.62;57.43;99058.45;110048;1276;22082;-56
2023/08/25 08:33:07;;;;;;;1.30;0.80;;;;;;;25.39;57.05;99059.89;110060;1272;22954;-55
2023/08/25 08:35:36;;;;;;;1.10;0.70;;;;;;;25.10;56.64;99058.90;109965;1276;99456;-55
2023/08/25 08:38:05;;;;;;;1.20;0.80;;;;;;;24.69;56.19;99055.65;110046;1276;22968;-56
2023/08/25 08:40:35;;;;;;;1.20;0.70;;;;;;;24.38;56.11;99049.27;109950;1276;99957;-55
2023/08/25 08:43:07;;;;;;;2.00;0.80;;;;;;;24.20;55.92;99052.00;110051;1276;22847;-55
2023/08/25 08:45:38;;;;;;;1.90;1.30;;;;;;;24.02;55.66;99058.29;110035;1276;22952;-55
2023/08/25 08:48:07;;;;;;;3.60;1.30;;;;;;;23.87;55.68;99061.65;109980;1276;99560;-55
2023/08/25 08:50:37;;;;;;;3.80;1.50;;;;;;;23.79;55.50;99068.98;110053;1277;23141;-55
2023/08/25 08:53:07;;;;;;;6.30;1.50;;;;;;;23.80;55.77;99071.88;109965;1276;99514;-55
2023/08/25 08:55:36;;;;;;;2.00;1.20;;;;;;;23.95;55.76;99073.55;110006;1276;23057;-51
2023/08/25 08:58:05;;;;;;;3.40;1.20;;;;;;;24.07;55.56;99064.23;109922;1276;99579;-54
2023/08/25 09:00:34;;;;;;;2.60;1.00;;;;;;;24.08;55.42;99061.61;110045;1277;22301;-54
2023/08/25 09:03:08;;;;;;;1.50;0.90;;;;;;;24.10;55.40;99062.47;110005;1276;22150;-53
2023/08/25 09:05:39;;;;;;;3.70;1.10;;;;;;;24.26;55.55;99056.14;109862;1276;99522;-51
2023/08/25 09:08:08;;;;;;;2.90;0.70;;;;;;;24.45;55.32;99046.88;110020;1276;22277;-52
2023/08/25 09:10:37;;;;;;;1.50;1.10;;;;;;;24.67;55.42;99049.98;109944;1276;100194;-52
2023/08/25 09:13:06;;;;;;;7.20;1.30;;;;;;;24.86;55.29;99047.50;109979;1276;22222;-51
2023/08/25 09:15:35;;;;;;;1.20;0.80;;;;;;;25.12;55.25;99045.66;110018;1275;22367;-54
2023/08/25 09:18:06;;;;;;;2.90;1.40;;;;;;;25.32;54.89;99046.80;109788;1277;99940;-53
2023/08/25 09:20:39;;;;;;;3.00;1.20;;;;;;;25.42;54.84;99044.35;109836;1276;22162;-55
2023/08/25 09:23:08;;;;;;;2.30;1.00;;;;;;;25.68;54.86;99045.52;109892;1276;99603;-52
2023/08/25 09:25:41;;;;;;;3.60;1.20;;;;;;;25.99;54.60;99042.84;109875;1268;22244;-59
2023/08/25 09:28:11;;;;;;;1.80;0.80;;;;;;;26.18;54.13;99041.08;109914;1277;103789;-60
2023/08/25 09:30:41;;;;;;;2.60;1.20;;;;;;;26.26;53.94;99037.33;109883;1276;22604;-60
2023/08/25 09:33:17;;;;;;;4.30;1.00;;;;;;;26.78;54.07;99036.46;109971;1276;22859;-58
2023/08/25 09:35:45;;;;;;;4.00;1.00;;;;;;;27.61;54.03;99035.34;109857;1278;99546;-58
2023/08/25 09:38:21;;;;;;;3.40;1.10;;;;;;;28.47;53.72;99034.59;109963;1266;22276;-57
2023/08/25 09:40:51;;;;;;;4.00;1.00;;;;;;;29.20;53.24;99032.09;109885;1276;100146;-58
2023/08/25 09:43:30;;;;;;;1.90;0.90;;;;;;;29.27;52.24;99029.98;110011;1268;22301;-58
2023/08/25 09:45:58;;;;;;;1.90;0.70;;;;;;;29.54;52.37;99030.61;109945;1280;22638;-58
2023/08/25 09:48:32;;;;;;;1.80;0.80;;;;;;;30.13;51.35;99030.95;110034;1277;22273;-58
2023/08/25 09:51:01;;;;;;;2.20;1.00;;;;;;;30.35;50.15;99034.43;110039;1277;22626;-58
2023/08/25 09:53:33;;;;;;;2.00;0.80;;;;;;;30.30;48.97;99030.00;109989;1276;99530;-58
2023/08/25 09:56:06;;;;;;;1.10;0.60;;;;;;;30.22;48.96;99035.92;110053;1279;22440;-58
2023/08/25 09:58:35;;;;;;;2.70;1.40;;;;;;;30.31;48.27;99037.48;109978;1276;99682;-58
2023/08/25 10:01:06;;;;;;;1.60;0.90;;;;;;;30.10;47.49;99033.06;110032;1276;22302;-58
2023/08/25 10:03:38;;;;;;;2.00;1.00;;;;;;;29.97;47.20;99031.29;110012;1277;22446;-58
2023/08/25 10:06:08;;;;;;;4.00;1.50;;;;;;;29.94;46.92;99032.33;109869;1276;99530;-59
2023/08/25 10:08:37;;;;;;;1.70;0.70;;;;;;;29.79;46.58;99032.86;110023;1276;22377;-58
2023/08/25 10:11:06;;;;;;;1.70;1.00;;;;;;;29.76;46.46;99032.38;109913;1276;99466;-58
2023/08/25 10:13:37;;;;;;;5.90;1.30;;;;;;;29.50;45.94;99036.55;109952;1276;22858;-58
2023/08/25 10:16:09;;;;;;;2.50;1.00;;;;;;;29.02;45.33;99037.24;109952;1276;99531;-58
2023/08/25 10:18:43;;;;;;;2.10;1.10;;;;;;;28.57;45.09;99039.13;110063;1276;22314;-58
2023/08/25 10:21:14;;;;;;;2.00;0.80;;;;;;;28.26;45.15;99040.96;110047;1275;22059;-58
2023/08/25 10:23:45;;;;;;;2.20;1.00;;;;;;;28.14;44.89;99041.14;109930;1277;100221;-58
2023/08/25 10:26:15;;;;;;;3.00;0.70;;;;;;;27.82;44.72;99039.38;110013;1276;23233;-57
2023/08/25 10:28:45;;;;;;;1.30;0.70;;;;;;;27.77;45.04;99038.89;109904;1276;99775;-58
2023/08/25 10:31:14;;;;;;;1.90;0.90;;;;;;;28.09;45.15;99034.61;109985;1277;22344;-58
2023/08/25 10:33:47;;;;;;;2.80;0.90;;;;;;;28.75;45.62;99030.60;110009;1276;22309;-58
2023/08/25 10:36:18;;;;;;;3.00;1.10;;;;;;;30.88;46.23;99029.54;109894;1275;100121;-58
2023/08/25 10:39:07;;;;;;;1.70;0.70;;;;;;;34.24;46.55;99024.37;110062;1277;22165;-59
2023/08/25 10:41:42;;;;;;;1.80;1.10;;;;;;;37.27;45.33;99023.80;109901;1276;99460;-59
2023/08/25 10:44:38;;;;;;;2.80;0.80;;;;;;;39.03;44.18;99019.78;110014;1276;23170;-60
2023/08/25 10:47:08;;;;;;;2.70;0.80;;;;;;;41.45;42.85;99018.42;109987;1276;99978;-57
2023/08/25 10:49:38;;;;;;;2.30;0.80;;;;;;;42.92;41.38;99017.85;110039;1276;22296;-58
2023/08/25 10:52:25;;;;;;;1.00;0.90;;;;;;;43.84;38.97;99016.13;109881;1276;99556;-58
2023/08/25 10:54:54;;;;;;;0.50;0.50;;;;;;;44.57;36.02;99012.61;109986;1277;22208;-58
2023/08/25 10:57:29;;;;;;;1.20;0.60;;;;;;;44.64;34.47;99005.06;110000;1277;22273;-58
2023/08/25 11:00:25;;;;;;;4.90;1.30;;;;;;;43.62;33.54;99004.77;109917;1277;100053;-58
2023/08/25 11:02:55;;;;;;;2.00;0.70;;;;;;;44.31;32.13;98998.75;109996;1277;26550;-58
2023/08/25 11:05:28;;;;;;;1.50;0.80;;;;;;;45.47;30.36;98993.02;109887;1277;99481;-58
2023/08/25 11:08:21;;;;;;;1.80;0.80;;;;;;;44.85;27.82;98995.79;109976;1277;22307;-58
2023/08/25 11:11:10;;;;;;;1.00;0.90;;;;;;;42.87;26.48;98995.29;109826;1276;99709;-58
2023/08/25 11:13:40;;;;;;;0.90;0.70;;;;;;;41.25;26.33;98994.53;109995;1277;22942;-58
2023/08/25 11:16:11;;;;;;;1.30;0.80;;;;;;;41.94;26.05;98998.92;109808;1278;99581;-58
2023/08/25 11:18:44;;;;;;;1.10;0.80;;;;;;;42.23;25.86;98990.36;109987;1277;22808;-57
2023/08/25 11:21:14;;;;;;;2.10;0.70;;;;;;;44.34;25.41;98991.05;109857;1276;22289;-58
2023/08/25 11:23:44;;;;;;;0.90;0.70;;;;;;;45.96;25.02;98983.07;109842;1267;99580;-58
2023/08/25 11:26:18;;;;;;;1.20;1.10;;;;;;;48.25;24.80;98983.55;109925;1276;23328;-59
2023/08/25 11:28:51;;;;;;;2.10;1.60;;;;;;;49.59;23.42;98977.17;109786;1276;99826;-59
2023/08/25 11:31:21;;;;;;;2.40;2.10;;;;;;;50.03;23.08;98981.71;109917;1276;22194;-59
2023/08/25 11:33:51;;;;;;;3.20;2.90;;;;;;;50.68;22.15;98981.27;109889;1268;22241;-59
2023/08/25 11:36:23;;;;;;;2.60;2.50;;;;;;;50.74;21.68;98979.70;109901;1277;99264;-59
2023/08/25 11:38:52;;;;;;;3.10;2.60;;;;;;;50.75;21.52;98979.70;110001;1277;22956;-59